Se encontraron 1176 coincidencias

por MetSul
Sab Abr 25, 2015 3:53 pm
Foro: Seguimientos Meteorológicos
Tema: Erupción del Volcán Calbuco 22/04/15
Respuestas: 90
Vistas: 3244

Re: Erupción del Volcán Calbuco 22/04/15

face2504g.jpg :o :o :o :o :o :o 771 de PM10 en la estacion de monitoreo del aire en Bahia Blanca? Correcto? Efecto de las cenizas en el aire? El dato és brutal. SAZM 251800Z 32016KT 7000 VA NSC 27/12 Q1015 VA EN SUSPENCION SAZM 251700Z 34016KT 7000 VA NSC 26/13 Q1016 VA EN SUSPENCION SAZM 251600Z 3...
por MetSul
Sab Ene 25, 2014 7:21 pm
Foro: Seguimientos Meteorológicos
Tema: 19/01 - 24/01 -Oscilaciones de frentes, tormentas, post desc
Respuestas: 1180
Vistas: 19065

Re: 19/01 - 24/01 -Oscilaciones de frentes, tormentas, post

Hola amigos de Gust !! Informes de las tormentas en Argentina, Uruguay y Brasil del 23/1 y 24/1: http://www.metsul.com/blog2012/Home/home/518/Dia_com_cara_de_inverno_ap%C3%B3s_grave_onda_de_temporais_no_Cone_Sul Informe de la tormenta en Uruguay (increibles fotos de rayos en Montevideo y la costa) h...
por MetSul
Vie Oct 04, 2013 9:59 pm
Foro: Seguimientos Meteorológicos
Tema: 01/10 al 08/10: Inest en el centro luego ambiente primaveral
Respuestas: 180
Vistas: 4016

Re: 01/10 al 08/10: Inest en el centro luego ambiente primav

El diario Correio do Povo de Porto Alegre tiene una columna llamada "Hace 100 anos en Correio do Povo". La columna deste sábado tiene las noticias de la edicion de 5 de octubre de 1913 : "Diarios que llegan de Buenos Aires informan sobre un invierno muy crudo en la Argentina con 500 mil ovejas muert...
por MetSul
Mar Sep 10, 2013 7:40 pm
Foro: Seguimientos Meteorológicos
Tema: 10 al 19 de sept 2013: del infierno de fuego a la nieve
Respuestas: 1001
Vistas: 15879

Re: 10 al 17 de sept 2013: del infierno de fuego a la nieve

Cual fue la maxima oficial en Ortuzar (abrigo y no EMA) este Martes ?
por MetSul
Vie Ago 23, 2013 4:14 pm
Foro: Seguimientos Meteorológicos
Tema: 22/08->27/08: El regreso del frío!
Respuestas: 586
Vistas: 10058

Re: 22/08->27/08: El regreso del frío!

Tremendo, absolutamente tremendo. -7,5 en 850 ! ECMWF Deterministic FORECAST FOR: SAEZ LAT= -34.82 LON= -58.53 ELE= 66 12Z AUG23 2 M 850 SFC SFC 700 6 HR 500 1000 TMP TMP PRS RHU RHU QPF HGT 500 (C) (C) (MB) (PCT) (PCT) (IN) (DM) THK FRI 12Z 23-AUG 2.7 -5.3 1025 44 1 0.00 558 538 FRI 18Z 23-AUG 9.3 ...
por MetSul
Jue Ago 22, 2013 6:10 pm
Foro: Seguimientos Meteorológicos
Tema: 22/08->27/08: El regreso del frío!
Respuestas: 586
Vistas: 10058

Re: 22/08->27/08: El regreso del frío!

Nieve granulada en Mar del Plata

SAZM 222036Z 23021KT 5000 -SHSGRA BKN005 FEW030 04/03 Q1014
por MetSul
Lun Ago 19, 2013 6:22 am
Foro: Pronóstico del Tiempo
Tema: 15->23/08: Alternancia de días frios y templados
Respuestas: 77
Vistas: 4547

Re: 15->23/08: Alternancia de días frios y templados

:o :o :o :o :o ECMWF Deterministic FORECAST FOR: SAEZ LAT= -34.82 LON= -58.53 ELE= 66 00Z AUG19 2 M 850 SFC SFC 700 6 HR 500 1000 TMP TMP PRS RHU RHU QPF HGT 500 (C) (C) (MB) (PCT) (PCT) (IN) (DM) THK MON 00Z 19-AUG 13.2 13.5 1018 77 2 0.00 576 561 MON 06Z 19-AUG 12.3 10.6 1017 89 3 0.00 575 561 MON...